Terminal Aerodrome Forecast
Issued by NWS

Home | Current Version | Previous Version | Text Only | Print | Product List | Glossary On
Versions: 1 2 3 4 5 6 7 8 9 10 11 12 13 14
000
FTUS43 KBIS 182300
TAFDIK
TAF
KDIK 182335Z 1900/1924 09015KT P6SM -SHRA BKN050 OVC100
     FM190300 28015KT P6SM SCT100
     FM191300 27017G27KT P6SM FEW250=

USA.gov is the U.S. government's official web portal to all federal, state and local government web resources and services.